Pct Moose — CGCZ — position and weather

sailwx.info

Track history (hours):
 
Tides and Currents Weather Stations Pressure Air Temp Water Temp Dewpoint Dewpoint Depression Visibility Wind Speed Wind Dir Waves Ship Positions

Pct Moose

Last reported at 2017-Aug-18 15:43 UTC. Time now 2017-Aug-20 00:21 UTC.
Position N 48°26' W 123°27'.

Length 33 m; draft 2.6 m.

Type: Military. MMSI: 316013412.

Date/timePositionNaut miles runAvg speedWind from/ knotsBaromVisibWave heightAir tempDewpointWater temp
2017-Aug-18 15:43N 48°26' W 123°27'0 0.0
2017-Aug-18 15:30N 48°26' W 123°27'3 6.9
2017-Aug-18 15:01N 48°24' W 123°24'4 7.8
2017-Aug-18 14:30N 48°23' W 123°18'9 8.9
2017-Aug-18 13:30N 48°31' W 123°13'611.5
2017-Aug-18 13:00N 48°37' W 123°15'3 6.4
2017-Aug-18 12:29N 48°40' W 123°16'4 8.7
2017-Aug-18 11:59N 48°44' W 123°12'611.6
2017-Aug-18 11:30N 48°46' W 123°04'4 7.8
2017-Aug-18 11:00N 48°50' W 123°03'5 9.6
2017-Aug-18 10:30N 48°53' W 123°08'510.9
2017-Aug-18 10:00N 48°57' W 123°14'510.0
2017-Aug-18 09:30N 49°01' W 123°19'5 9.3
2017-Aug-18 09:00N 49°04' W 123°24'5 9.7
2017-Aug-18 08:30N 49°09' W 123°24'4 8.5
2017-Aug-18 08:00N 49°13' W 123°22'5 9.1
2017-Aug-18 07:30N 49°17' W 123°24'5 9.2
2017-Aug-18 07:00N 49°22' W 123°27'5 9.8
2017-Aug-18 06:30N 49°25' W 123°22'4 8.1
2017-Aug-18 06:00N 49°29' W 123°19'5 9.5
2017-Aug-18 05:30N 49°34' W 123°20'3 6.4
2017-Aug-18 05:00N 49°32' W 123°16'5 9.9
2017-Aug-18 04:30N 49°27' W 123°15'5 9.3
2017-Aug-18 04:00N 49°22' W 123°18'4 8.5
2017-Aug-18 03:30N 49°19' W 123°14'510.0
2017-Aug-18 03:01N 49°18' W 123°06'1 1.2
2017-Aug-18 02:30N 49°18' W 123°07'0 0.0
2017-Aug-18 01:57N 49°18' W 123°07'0 0.0
2017-Aug-18 01:27N 49°18' W 123°07'0 0.2
2017-Aug-18 01:00N 49°18' W 123°07'3 6.6
2017-Aug-18 00:31N 49°19' W 123°12'5 9.9
2017-Aug-18 00:00N 49°16' W 123°18'5 9.9
2017-Aug-17 23:30N 49°12' W 123°19'5 9.7
2017-Aug-17 22:59N 49°07' W 123°20'5 8.9
2017-Aug-17 22:29N 49°02' W 123°18'6 9.7
2017-Aug-17 21:50N 48°58' W 123°11'310.5
2017-Aug-17 21:30N 48°56' W 123°07'510.2
2017-Aug-17 20:59N 48°52' W 123°02'5 9.8
2017-Aug-17 20:30N 48°47' W 123°00'611.4
2017-Aug-17 20:00N 48°44' W 123°07'611.2
2017-Aug-17 19:30N 48°41' W 123°15'510.9
2017-Aug-17 19:00N 48°36' W 123°13'611.2
2017-Aug-17 18:30N 48°31' W 123°11'511.0
2017-Aug-17 18:01N 48°25' W 123°10'612.8
2017-Aug-17 17:31N 48°22' W 123°18'510.6
2017-Aug-17 17:00N 48°22' W 123°26'4 7.3
2017-Aug-17 16:30N 48°19' W 123°30'1 2.2
2017-Aug-17 16:00N 48°20' W 123°29'2 3.2
2017-Aug-17 15:30N 48°22' W 123°28'1 1.2
2017-Aug-17 15:01N 48°22' W 123°27'2 3.2
2017-Aug-17 14:31N 48°23' W 123°26'4 8.5
2017-Aug-17 14:00N 48°23' W 123°19'3 6.9
2017-Aug-17 13:30N 48°24' W 123°14'4 7.6
2017-Aug-17 13:00N 48°28' W 123°12'612.4
2017-Aug-17 12:30N 48°34' W 123°13'611.4
2017-Aug-17 11:59N 48°40' W 123°15'4 8.6
2017-Aug-17 11:30N 48°43' W 123°12'611.5
2017-Aug-17 10:58N 48°46' W 123°04'4 8.1
2017-Aug-17 10:30N 48°49' W 123°01'5 9.9
2017-Aug-17 10:00N 48°53' W 123°07'510.1
2017-Aug-17 09:30N 48°56' W 123°12'510.6
2017-Aug-17 08:59N 48°60' W 123°18'510.1
2017-Aug-17 08:30N 49°03' W 123°24'510.8
2017-Aug-17 08:00N 49°07' W 123°29'611.3
2017-Aug-17 07:27N 49°12' W 123°35'511.9
2017-Aug-17 07:00N 49°14' W 123°43'611.8
2017-Aug-17 06:31N 49°17' W 123°51'611.6
2017-Aug-17 06:00N 49°20' W 123°59'612.0
2017-Aug-17 05:30N 49°22' W 124°07'611.7
2017-Aug-17 05:00N 49°24' W 124°15'510.8
2017-Aug-17 04:30N 49°25' W 124°23'611.5
2017-Aug-17 04:00N 49°29' W 124°30'612.1
2017-Aug-17 03:30N 49°34' W 124°35'611.9
2017-Aug-17 03:00N 49°39' W 124°41'611.3
2017-Aug-17 02:30N 49°43' W 124°46'510.4
2017-Aug-17 02:00N 49°47' W 124°51'4 8.5
2017-Aug-17 01:31N 49°50' W 124°56'611.9
2017-Aug-17 01:00N 49°54' W 125°03'3 6.9
2017-Aug-17 00:30N 49°58' W 125°02'510.2
2017-Aug-17 00:00N 50°01' W 124°56'4 8.7
2017-Aug-16 23:30N 50°04' W 124°52'4 7.7
2017-Aug-16 23:01N 50°08' W 124°53'3 5.8
2017-Aug-16 22:30N 50°11' W 124°54'2 3.4
2017-Aug-16 22:00N 50°11' W 124°52'1 1.8
2017-Aug-16 21:31N 50°12' W 124°51'0 0.0
2017-Aug-16 21:01N 50°12' W 124°51'0 0.0
2017-Aug-16 20:31N 50°12' W 124°51'0 0.0
2017-Aug-16 20:00N 50°12' W 124°51'0 0.0
2017-Aug-16 19:31N 50°12' W 124°51'0 0.0
2017-Aug-16 19:00N 50°12' W 124°51'0 0.0
2017-Aug-16 18:31N 50°12' W 124°51'0 0.0
2017-Aug-16 18:01N 50°12' W 124°51'0 0.0
2017-Aug-16 17:30N 50°12' W 124°51'1 1.1
2017-Aug-16 17:00N 50°11' W 124°51'1 1.0
2017-Aug-16 16:31N 50°11' W 124°52'2 4.0
2017-Aug-16 16:01N 50°10' W 124°54'3 5.3
2017-Aug-16 15:31N 50°07' W 124°53'4 8.6
2017-Aug-16 15:00N 50°03' W 124°53'4 8.1
2017-Aug-16 14:31N 50°01' W 124°58'4 8.7
2017-Aug-16 14:00N 49°57' W 125°02'5 9.6
2017-Aug-16 13:31N 49°53' W 124°59'510.3
2017-Aug-16 13:00N 49°50' W 124°53'5 9.7
2017-Aug-16 12:30N 49°49' W 124°45'5 9.3
2017-Aug-16 12:01N 49°50' W 124°38'4 7.8
2017-Aug-16 11:31N 49°48' W 124°33'4 8.4
2017-Aug-16 11:01N 49°46' W 124°27'4 8.7
2017-Aug-16 10:30N 49°44' W 124°21'4 8.6
2017-Aug-16 10:01N 49°41' W 124°16'4 8.8
2017-Aug-16 09:31N 49°38' W 124°11'4 8.4
2017-Aug-16 09:00N 49°35' W 124°07'4 8.8
2017-Aug-16 08:31N 49°31' W 124°04'4 8.0
2017-Aug-16 08:01N 49°27' W 124°02'4 8.8
2017-Aug-16 07:31N 49°25' W 123°56'5 9.3
2017-Aug-16 07:00N 49°23' W 123°49'510.0
2017-Aug-16 06:30N 49°22' W 123°42'510.3
2017-Aug-16 06:01N 49°20' W 123°34'510.9
2017-Aug-16 05:30N 49°19' W 123°26'4 8.8
2017-Aug-16 05:00N 49°23' W 123°25'2 5.0
2017-Aug-16 04:30N 49°26' W 123°25'2 4.8
2017-Aug-16 04:00N 49°25' W 123°28'1 1.2
2017-Aug-16 03:30N 49°25' W 123°29'0 0.5
2017-Aug-16 03:00N 49°25' W 123°29'3 6.3
2017-Aug-16 02:30N 49°25' W 123°24'5 9.3
2017-Aug-16 02:00N 49°20' W 123°27'511.2
2017-Aug-16 01:30N 49°16' W 123°22'611.9
2017-Aug-16 01:00N 49°10' W 123°20'712.6
2017-Aug-16 00:27N 49°03' W 123°19'613.6
2017-Aug-15 23:59N 48°59' W 123°13'813.5
2017-Aug-15 23:26N 48°54' W 123°04'512.8
2017-Aug-15 23:00N 48°50' W 122°58'612.6
2017-Aug-15 22:30N 48°45' W 123°05'612.1
2017-Aug-15 22:00N 48°42' W 123°13'4 7.3
2017-Aug-15 21:29N 48°44' W 123°18'4 7.3
2017-Aug-15 21:00N 48°47' W 123°21'4 8.3
2017-Aug-15 20:30N 48°51' W 123°23'3 6.6
2017-Aug-15 20:00N 48°48' W 123°22'4 7.5
2017-Aug-15 19:30N 48°44' W 123°23'4 8.7
2017-Aug-15 19:00N 48°42' W 123°29'4 7.5
2017-Aug-15 18:30N 48°39' W 123°31'4 7.3
2017-Aug-15 18:00N 48°42' W 123°32'2 3.6
2017-Aug-15 17:30N 48°42' W 123°29'5 9.7
2017-Aug-15 16:58N 48°45' W 123°22'510.0
2017-Aug-15 16:30N 48°50' W 123°20'5 9.2
2017-Aug-15 16:00N 48°48' W 123°14'5 9.8
2017-Aug-15 15:30N 48°45' W 123°08'4 8.8
2017-Aug-15 15:00N 48°47' W 123°02'610.9
2017-Aug-15 14:29N 48°52' W 123°06'612.8
2017-Aug-15 14:00N 48°56' W 123°13'612.7
2017-Aug-15 13:31N 48°58' W 123°22'611.1
2017-Aug-15 13:00N 49°01' W 123°30'2 4.3
2017-Aug-15 12:30N 49°03' W 123°32'511.0
2017-Aug-15 12:00N 49°08' W 123°36'511.0
2017-Aug-15 11:31N 49°13' W 123°34'1 2.4
2017-Aug-15 11:00N 49°14' W 123°33'5 9.9
2017-Aug-15 10:30N 49°19' W 123°32'4 9.0
2017-Aug-15 10:00N 49°23' W 123°28'5 9.0
2017-Aug-15 09:30N 49°25' W 123°22'5 9.2
2017-Aug-15 09:00N 49°26' W 123°15'4 8.5
2017-Aug-15 08:30N 49°22' W 123°18'5 9.2
2017-Aug-15 08:00N 49°17' W 123°18'4 8.9
2017-Aug-15 07:30N 49°13' W 123°19'5 9.7
2017-Aug-15 07:00N 49°08' W 123°20'4 8.4
2017-Aug-15 06:30N 49°04' W 123°20'610.0
2017-Aug-15 05:53N 49°00' W 123°13'410.2
2017-Aug-15 05:30N 48°57' W 123°09'511.0
2017-Aug-15 05:00N 48°54' W 123°02'4 8.8
2017-Aug-15 04:30N 48°50' W 123°00'5 9.5
2017-Aug-15 04:01N 48°45' W 123°03'610.9
2017-Aug-15 03:30N 48°43' W 123°11'3 6.3
2017-Aug-15 02:59N 48°41' W 123°15'5 9.7
2017-Aug-15 02:30N 48°37' W 123°13'5 9.7
2017-Aug-15 02:00N 48°32' W 123°12'5 9.8
2017-Aug-15 01:30N 48°28' W 123°10'4 8.7
2017-Aug-15 01:00N 48°24' W 123°12'510.3
2017-Aug-15 00:30N 48°22' W 123°20'4 8.5
2017-Aug-15 00:01N 48°24' W 123°26'3 5.6
2017-Aug-14 23:30N 48°26' W 123°26'0 0.3
2017-Aug-14 22:59N 48°26' W 123°27'0 0.8
2017-Aug-14 22:30N 48°26' W 123°26'714.4
2017-Aug-14 22:00N 48°20' W 123°20'4 8.5
2017-Aug-14 21:31N 48°17' W 123°16'2 4.3
2017-Aug-14 21:01N 48°18' W 123°19'2 4.2
2017-Aug-14 20:30N 48°19' W 123°22'0 1.0
2017-Aug-14 20:00N 48°18' W 123°22'4 8.5
2017-Aug-14 19:31N 48°20' W 123°16'1 1.6
2017-Aug-14 19:00N 48°20' W 123°17'3 5.5
2017-Aug-14 18:31N 48°21' W 123°21'510.5
2017-Aug-14 18:00N 48°25' W 123°27'1 2.9
2017-Aug-14 17:30N 48°26' W 123°27'0 0.0
2017-Aug-14 17:00N 48°26' W 123°27'0 0.0
2017-Aug-14 16:30N 48°26' W 123°27'0 0.0
2017-Aug-14 16:00N 48°26' W 123°27'0 0.0
2017-Aug-14 15:30N 48°26' W 123°27'0 0.0
2017-Aug-14 15:00N 48°26' W 123°27'  
2017-Aug-11 14:56N 48°26' W 123°27'2 5.1
2017-Aug-11 14:30N 48°24' W 123°25'9 8.6
2017-Aug-11 13:30N 48°26' W 123°12'510.4
2017-Aug-11 13:00N 48°31' W 123°13'510.4
2017-Aug-11 12:30N 48°36' W 123°14'510.1
2017-Aug-11 12:00N 48°41' W 123°16'4 8.8
2017-Aug-11 11:30N 48°44' W 123°11'610.4
2017-Aug-11 10:58N 48°46' W 123°03'4 7.9
2017-Aug-11 10:30N 48°50' W 123°01'4 8.9
2017-Aug-11 10:00N 48°53' W 123°06'4 8.6
2017-Aug-11 09:30N 48°55' W 123°11'510.8
2017-Aug-11 09:00N 48°59' W 123°17'510.3
2017-Aug-11 08:30N 49°03' W 123°23'510.6
2017-Aug-11 08:00N 49°08' W 123°24'510.2
2017-Aug-11 07:30N 49°13' W 123°23'510.6
2017-Aug-11 07:00N 49°18' W 123°26'5 9.5
2017-Aug-11 06:30N 49°22' W 123°26'5 9.4
2017-Aug-11 06:00N 49°26' W 123°21'4 7.9
2017-Aug-11 05:30N 49°29' W 123°19'5 9.4
2017-Aug-11 05:00N 49°34' W 123°20'2 4.2
2017-Aug-11 04:30N 49°33' W 123°17'5 9.1
2017-Aug-11 04:00N 49°29' W 123°17'510.2
2017-Aug-11 03:30N 49°24' W 123°18'4 8.3
2017-Aug-11 03:00N 49°20' W 123°16'510.1
2017-Aug-11 02:30N 49°19' W 123°09'29 6.6
2017-Aug-10 22:04N 48°51' W 123°23'110.9
2017-Aug-10 22:00N 48°52' W 123°24'4 7.5
2017-Aug-10 21:30N 48°55' W 123°27'1 2.8
2017-Aug-10 21:00N 48°54' W 123°25'0 0.0
2017-Aug-10 20:30N 48°54' W 123°25'0 0.0
2017-Aug-10 20:00N 48°54' W 123°25'0 0.0
2017-Aug-10 19:30N 48°54' W 123°25'0 0.0
2017-Aug-10 19:00N 48°54' W 123°25'0 0.0
2017-Aug-10 18:27N 48°54' W 123°25'0 0.0
2017-Aug-10 18:00N 48°54' W 123°25'0 0.0
2017-Aug-10 17:30N 48°54' W 123°25'0 0.0
2017-Aug-10 16:55N 48°54' W 123°25'1 1.9
2017-Aug-10 16:30N 48°55' W 123°26'3 5.2
2017-Aug-10 16:00N 48°56' W 123°30'3 4.9
2017-Aug-10 15:23N 48°53' W 123°27'3 8.6
2017-Aug-10 15:00N 48°51' W 123°23'4 8.6
2017-Aug-10 14:30N 48°47' W 123°20'4 8.3
2017-Aug-10 14:00N 48°44' W 123°24'5 9.1
2017-Aug-10 13:30N 48°42' W 123°30'1 1.4
2017-Aug-10 13:00N 48°42' W 123°29'9 8.2
2017-Aug-10 11:52N 48°44' W 123°15'3 9.2
2017-Aug-10 11:30N 48°43' W 123°10'33 8.3
2017-Aug-10 07:29N 49°16' W 123°21'612.1
2017-Aug-10 07:00N 49°22' W 123°19'4 7.3
2017-Aug-10 06:29N 49°25' W 123°21'21 8.4
2017-Aug-10 03:55N 49°23' W 123°54'2 4.1
2017-Aug-10 03:25N 49°24' W 123°57'613.1
2017-Aug-10 03:00N 49°23' W 123°49'4 7.8
2017-Aug-10 02:30N 49°22' W 123°43'4 8.2
2017-Aug-10 02:00N 49°20' W 123°37'4 7.0
2017-Aug-10 01:30N 49°21' W 123°42'611.4
2017-Aug-10 01:00N 49°22' W 123°51'3 6.1
2017-Aug-10 00:29N 49°23' W 123°55'1 2.5
2017-Aug-10 00:00N 49°22' W 123°55'5 9.5
2017-Aug-09 23:30N 49°21' W 123°47'5 9.3
2017-Aug-09 23:00N 49°19' W 123°41'2 4.3
2017-Aug-09 22:29N 49°19' W 123°38'4 7.9
2017-Aug-09 22:00N 49°20' W 123°43'4 8.2
2017-Aug-09 21:29N 49°16' W 123°42'3 5.9
2017-Aug-09 21:00N 49°17' W 123°46'5 9.6
2017-Aug-09 20:30N 49°22' W 123°46'5 9.4
2017-Aug-09 20:00N 49°21' W 123°39'4 9.0
2017-Aug-09 19:31N 49°21' W 123°32'4 7.9
2017-Aug-09 19:00N 49°18' W 123°28'4 7.3
2017-Aug-09 18:30N 49°14' W 123°30'5 8.8
2017-Aug-09 17:57N 49°17' W 123°36'4 8.9
2017-Aug-09 17:29N 49°20' W 123°40'7 5.1
2017-Aug-09 16:09N 49°22' W 123°50'2 7.4
2017-Aug-09 15:50N 49°23' W 123°53'3 9.3
2017-Aug-09 15:29N 49°25' W 123°58'911.2
2017-Aug-09 14:42N 49°31' W 124°07'411.8
2017-Aug-09 14:23N 49°34' W 124°10'511.9
2017-Aug-09 14:00N 49°38' W 124°15'510.8
2017-Aug-09 13:30N 49°42' W 124°20'4 8.8
2017-Aug-09 13:00N 49°44' W 124°25'5 9.6
2017-Aug-09 12:30N 49°46' W 124°32'4 9.0
2017-Aug-09 12:00N 49°50' W 124°36'3 6.8
2017-Aug-09 11:30N 49°48' W 124°32'5 9.7
2017-Aug-09 11:00N 49°45' W 124°25'5 9.6
2017-Aug-09 10:30N 49°44' W 124°18'4 7.7
2017-Aug-09 10:00N 49°46' W 124°13'7 9.6
2017-Aug-09 09:16N 49°48' W 124°03'5 6.2
2017-Aug-09 08:30N 49°46' W 124°09'4 7.5
2017-Aug-09 08:00N 49°44' W 124°14'4 9.1
2017-Aug-09 07:30N 49°39' W 124°13'5 9.4
2017-Aug-09 07:00N 49°36' W 124°08'5 9.6
2017-Aug-09 06:31N 49°32' W 124°04'5 9.2
2017-Aug-09 05:58N 49°27' W 124°01'4 9.5
2017-Aug-09 05:30N 49°26' W 123°54'4 8.7
2017-Aug-09 05:00N 49°25' W 123°48'3 4.1
2017-Aug-09 04:13N 49°23' W 123°44'1 5.7
2017-Aug-09 04:00N 49°22' W 123°42'3 5.2
2017-Aug-09 03:31N 49°22' W 123°39'3 5.4
2017-Aug-09 03:00N 49°22' W 123°34'810.8
2017-Aug-09 02:18N 49°25' W 123°23'310.4
2017-Aug-09 01:59N 49°26' W 123°19'3 6.7
2017-Aug-09 01:29N 49°22' W 123°18'4 8.1
2017-Aug-09 01:00N 49°18' W 123°18'611.7
2017-Aug-09 00:30N 49°12' W 123°19'917.2
2017-Aug-08 23:58N 49°04' W 123°26'3 5.6
2017-Aug-08 23:29N 49°03' W 123°29'2 4.4
2017-Aug-08 22:59N 49°04' W 123°31'4 4.9
2017-Aug-08 22:07N 49°08' W 123°36'1 4.0
2017-Aug-08 21:46N 49°09' W 123°37'2 4.3
2017-Aug-08 21:26N 49°09' W 123°35'15 6.0
2017-Aug-08 19:00N 49°21' W 123°49'5 8.5
2017-Aug-08 18:26N 49°23' W 123°42'4 9.2
2017-Aug-08 17:59N 49°21' W 123°36'5 9.0
2017-Aug-08 17:29N 49°19' W 123°30'4 9.3
2017-Aug-08 17:00N 49°18' W 123°23'2 3.6
2017-Aug-08 16:30N 49°19' W 123°21'4 8.8
2017-Aug-08 16:00N 49°19' W 123°14'  
Track history (hours):
 
Tides and Currents Weather Stations Pressure Air Temp Water Temp Dewpoint Dewpoint Depression Visibility Wind Speed Wind Dir Waves Ship Positions

Pct Moose

Last reported at 2017-Aug-18 15:43 UTC. Time now 2017-Aug-20 00:21 UTC.
Position N 48°26' W 123°27'.

Length 33 m; draft 2.6 m.

Type: Military. MMSI: 316013412.

Date/timePositionNaut miles runAvg speedWind from/ knotsBaromVisibWave heightAir tempDewpointWater temp
2017-Aug-18 15:43N 48°26' W 123°27'0 0.0
2017-Aug-18 15:30N 48°26' W 123°27'3 6.9
2017-Aug-18 15:01N 48°24' W 123°24'4 7.8
2017-Aug-18 14:30N 48°23' W 123°18'9 8.9
2017-Aug-18 13:30N 48°31' W 123°13'611.5
2017-Aug-18 13:00N 48°37' W 123°15'3 6.4
2017-Aug-18 12:29N 48°40' W 123°16'4 8.7
2017-Aug-18 11:59N 48°44' W 123°12'611.6
2017-Aug-18 11:30N 48°46' W 123°04'4 7.8
2017-Aug-18 11:00N 48°50' W 123°03'5 9.6
2017-Aug-18 10:30N 48°53' W 123°08'510.9
2017-Aug-18 10:00N 48°57' W 123°14'510.0
2017-Aug-18 09:30N 49°01' W 123°19'5 9.3
2017-Aug-18 09:00N 49°04' W 123°24'5 9.7
2017-Aug-18 08:30N 49°09' W 123°24'4 8.5
2017-Aug-18 08:00N 49°13' W 123°22'5 9.1
2017-Aug-18 07:30N 49°17' W 123°24'5 9.2
2017-Aug-18 07:00N 49°22' W 123°27'5 9.8
2017-Aug-18 06:30N 49°25' W 123°22'4 8.1
2017-Aug-18 06:00N 49°29' W 123°19'5 9.5
2017-Aug-18 05:30N 49°34' W 123°20'3 6.4
2017-Aug-18 05:00N 49°32' W 123°16'5 9.9
2017-Aug-18 04:30N 49°27' W 123°15'5 9.3
2017-Aug-18 04:00N 49°22' W 123°18'4 8.5
2017-Aug-18 03:30N 49°19' W 123°14'510.0
2017-Aug-18 03:01N 49°18' W 123°06'1 1.2
2017-Aug-18 02:30N 49°18' W 123°07'0 0.0
2017-Aug-18 01:57N 49°18' W 123°07'0 0.0
2017-Aug-18 01:27N 49°18' W 123°07'0 0.2
2017-Aug-18 01:00N 49°18' W 123°07'3 6.6
2017-Aug-18 00:31N 49°19' W 123°12'5 9.9
2017-Aug-18 00:00N 49°16' W 123°18'5 9.9
2017-Aug-17 23:30N 49°12' W 123°19'5 9.7
2017-Aug-17 22:59N 49°07' W 123°20'5 8.9
2017-Aug-17 22:29N 49°02' W 123°18'6 9.7
2017-Aug-17 21:50N 48°58' W 123°11'310.5
2017-Aug-17 21:30N 48°56' W 123°07'510.2
2017-Aug-17 20:59N 48°52' W 123°02'5 9.8
2017-Aug-17 20:30N 48°47' W 123°00'611.4
2017-Aug-17 20:00N 48°44' W 123°07'611.2
2017-Aug-17 19:30N 48°41' W 123°15'510.9
2017-Aug-17 19:00N 48°36' W 123°13'611.2
2017-Aug-17 18:30N 48°31' W 123°11'511.0
2017-Aug-17 18:01N 48°25' W 123°10'612.8
2017-Aug-17 17:31N 48°22' W 123°18'510.6
2017-Aug-17 17:00N 48°22' W 123°26'4 7.3
2017-Aug-17 16:30N 48°19' W 123°30'1 2.2
2017-Aug-17 16:00N 48°20' W 123°29'2 3.2
2017-Aug-17 15:30N 48°22' W 123°28'1 1.2
2017-Aug-17 15:01N 48°22' W 123°27'2 3.2
2017-Aug-17 14:31N 48°23' W 123°26'4 8.5
2017-Aug-17 14:00N 48°23' W 123°19'3 6.9
2017-Aug-17 13:30N 48°24' W 123°14'4 7.6
2017-Aug-17 13:00N 48°28' W 123°12'612.4
2017-Aug-17 12:30N 48°34' W 123°13'611.4
2017-Aug-17 11:59N 48°40' W 123°15'4 8.6
2017-Aug-17 11:30N 48°43' W 123°12'611.5
2017-Aug-17 10:58N 48°46' W 123°04'4 8.1
2017-Aug-17 10:30N 48°49' W 123°01'5 9.9
2017-Aug-17 10:00N 48°53' W 123°07'510.1
2017-Aug-17 09:30N 48°56' W 123°12'510.6
2017-Aug-17 08:59N 48°60' W 123°18'510.1
2017-Aug-17 08:30N 49°03' W 123°24'510.8
2017-Aug-17 08:00N 49°07' W 123°29'611.3
2017-Aug-17 07:27N 49°12' W 123°35'511.9
2017-Aug-17 07:00N 49°14' W 123°43'611.8
2017-Aug-17 06:31N 49°17' W 123°51'611.6
2017-Aug-17 06:00N 49°20' W 123°59'612.0
2017-Aug-17 05:30N 49°22' W 124°07'611.7
2017-Aug-17 05:00N 49°24' W 124°15'510.8
2017-Aug-17 04:30N 49°25' W 124°23'611.5
2017-Aug-17 04:00N 49°29' W 124°30'612.1
2017-Aug-17 03:30N 49°34' W 124°35'611.9
2017-Aug-17 03:00N 49°39' W 124°41'611.3
2017-Aug-17 02:30N 49°43' W 124°46'510.4
2017-Aug-17 02:00N 49°47' W 124°51'4 8.5
2017-Aug-17 01:31N 49°50' W 124°56'611.9
2017-Aug-17 01:00N 49°54' W 125°03'3 6.9
2017-Aug-17 00:30N 49°58' W 125°02'510.2
2017-Aug-17 00:00N 50°01' W 124°56'4 8.7
2017-Aug-16 23:30N 50°04' W 124°52'4 7.7
2017-Aug-16 23:01N 50°08' W 124°53'3 5.8
2017-Aug-16 22:30N 50°11' W 124°54'2 3.4
2017-Aug-16 22:00N 50°11' W 124°52'1 1.8
2017-Aug-16 21:31N 50°12' W 124°51'0 0.0
2017-Aug-16 21:01N 50°12' W 124°51'0 0.0
2017-Aug-16 20:31N 50°12' W 124°51'0 0.0
2017-Aug-16 20:00N 50°12' W 124°51'0 0.0
2017-Aug-16 19:31N 50°12' W 124°51'0 0.0
2017-Aug-16 19:00N 50°12' W 124°51'0 0.0
2017-Aug-16 18:31N 50°12' W 124°51'0 0.0
2017-Aug-16 18:01N 50°12' W 124°51'0 0.0
2017-Aug-16 17:30N 50°12' W 124°51'1 1.1
2017-Aug-16 17:00N 50°11' W 124°51'1 1.0
2017-Aug-16 16:31N 50°11' W 124°52'2 4.0
2017-Aug-16 16:01N 50°10' W 124°54'3 5.3
2017-Aug-16 15:31N 50°07' W 124°53'4 8.6
2017-Aug-16 15:00N 50°03' W 124°53'4 8.1
2017-Aug-16 14:31N 50°01' W 124°58'4 8.7
2017-Aug-16 14:00N 49°57' W 125°02'5 9.6
2017-Aug-16 13:31N 49°53' W 124°59'510.3
2017-Aug-16 13:00N 49°50' W 124°53'5 9.7
2017-Aug-16 12:30N 49°49' W 124°45'5 9.3
2017-Aug-16 12:01N 49°50' W 124°38'4 7.8
2017-Aug-16 11:31N 49°48' W 124°33'4 8.4
2017-Aug-16 11:01N 49°46' W 124°27'4 8.7
2017-Aug-16 10:30N 49°44' W 124°21'4 8.6
2017-Aug-16 10:01N 49°41' W 124°16'4 8.8
2017-Aug-16 09:31N 49°38' W 124°11'4 8.4
2017-Aug-16 09:00N 49°35' W 124°07'4 8.8
2017-Aug-16 08:31N 49°31' W 124°04'4 8.0
2017-Aug-16 08:01N 49°27' W 124°02'4 8.8
2017-Aug-16 07:31N 49°25' W 123°56'5 9.3
2017-Aug-16 07:00N 49°23' W 123°49'510.0
2017-Aug-16 06:30N 49°22' W 123°42'510.3
2017-Aug-16 06:01N 49°20' W 123°34'510.9
2017-Aug-16 05:30N 49°19' W 123°26'4 8.8
2017-Aug-16 05:00N 49°23' W 123°25'2 5.0
2017-Aug-16 04:30N 49°26' W 123°25'2 4.8
2017-Aug-16 04:00N 49°25' W 123°28'1 1.2
2017-Aug-16 03:30N 49°25' W 123°29'0 0.5
2017-Aug-16 03:00N 49°25' W 123°29'3 6.3
2017-Aug-16 02:30N 49°25' W 123°24'5 9.3
2017-Aug-16 02:00N 49°20' W 123°27'511.2
2017-Aug-16 01:30N 49°16' W 123°22'611.9
2017-Aug-16 01:00N 49°10' W 123°20'712.6
2017-Aug-16 00:27N 49°03' W 123°19'613.6
2017-Aug-15 23:59N 48°59' W 123°13'813.5
2017-Aug-15 23:26N 48°54' W 123°04'512.8
2017-Aug-15 23:00N 48°50' W 122°58'612.6
2017-Aug-15 22:30N 48°45' W 123°05'612.1
2017-Aug-15 22:00N 48°42' W 123°13'4 7.3
2017-Aug-15 21:29N 48°44' W 123°18'4 7.3
2017-Aug-15 21:00N 48°47' W 123°21'4 8.3
2017-Aug-15 20:30N 48°51' W 123°23'3 6.6
2017-Aug-15 20:00N 48°48' W 123°22'4 7.5
2017-Aug-15 19:30N 48°44' W 123°23'4 8.7
2017-Aug-15 19:00N 48°42' W 123°29'4 7.5
2017-Aug-15 18:30N 48°39' W 123°31'4 7.3
2017-Aug-15 18:00N 48°42' W 123°32'2 3.6
2017-Aug-15 17:30N 48°42' W 123°29'5 9.7
2017-Aug-15 16:58N 48°45' W 123°22'510.0
2017-Aug-15 16:30N 48°50' W 123°20'5 9.2
2017-Aug-15 16:00N 48°48' W 123°14'5 9.8
2017-Aug-15 15:30N 48°45' W 123°08'4 8.8
2017-Aug-15 15:00N 48°47' W 123°02'610.9
2017-Aug-15 14:29N 48°52' W 123°06'612.8
2017-Aug-15 14:00N 48°56' W 123°13'612.7
2017-Aug-15 13:31N 48°58' W 123°22'611.1
2017-Aug-15 13:00N 49°01' W 123°30'2 4.3
2017-Aug-15 12:30N 49°03' W 123°32'511.0
2017-Aug-15 12:00N 49°08' W 123°36'511.0
2017-Aug-15 11:31N 49°13' W 123°34'1 2.4
2017-Aug-15 11:00N 49°14' W 123°33'5 9.9
2017-Aug-15 10:30N 49°19' W 123°32'4 9.0
2017-Aug-15 10:00N 49°23' W 123°28'5 9.0
2017-Aug-15 09:30N 49°25' W 123°22'5 9.2
2017-Aug-15 09:00N 49°26' W 123°15'4 8.5
2017-Aug-15 08:30N 49°22' W 123°18'5 9.2
2017-Aug-15 08:00N 49°17' W 123°18'4 8.9
2017-Aug-15 07:30N 49°13' W 123°19'5 9.7
2017-Aug-15 07:00N 49°08' W 123°20'4 8.4
2017-Aug-15 06:30N 49°04' W 123°20'610.0
2017-Aug-15 05:53N 49°00' W 123°13'410.2
2017-Aug-15 05:30N 48°57' W 123°09'511.0
2017-Aug-15 05:00N 48°54' W 123°02'4 8.8
2017-Aug-15 04:30N 48°50' W 123°00'5 9.5
2017-Aug-15 04:01N 48°45' W 123°03'610.9
2017-Aug-15 03:30N 48°43' W 123°11'3 6.3
2017-Aug-15 02:59N 48°41' W 123°15'5 9.7
2017-Aug-15 02:30N 48°37' W 123°13'5 9.7
2017-Aug-15 02:00N 48°32' W 123°12'5 9.8
2017-Aug-15 01:30N 48°28' W 123°10'4 8.7
2017-Aug-15 01:00N 48°24' W 123°12'510.3
2017-Aug-15 00:30N 48°22' W 123°20'4 8.5
2017-Aug-15 00:01N 48°24' W 123°26'3 5.6
2017-Aug-14 23:30N 48°26' W 123°26'0 0.3
2017-Aug-14 22:59N 48°26' W 123°27'0 0.8
2017-Aug-14 22:30N 48°26' W 123°26'714.4
2017-Aug-14 22:00N 48°20' W 123°20'4 8.5
2017-Aug-14 21:31N 48°17' W 123°16'2 4.3
2017-Aug-14 21:01N 48°18' W 123°19'2 4.2
2017-Aug-14 20:30N 48°19' W 123°22'0 1.0
2017-Aug-14 20:00N 48°18' W 123°22'4 8.5
2017-Aug-14 19:31N 48°20' W 123°16'1 1.6
2017-Aug-14 19:00N 48°20' W 123°17'3 5.5
2017-Aug-14 18:31N 48°21' W 123°21'510.5
2017-Aug-14 18:00N 48°25' W 123°27'1 2.9
2017-Aug-14 17:30N 48°26' W 123°27'0 0.0
2017-Aug-14 17:00N 48°26' W 123°27'0 0.0
2017-Aug-14 16:30N 48°26' W 123°27'0 0.0
2017-Aug-14 16:00N 48°26' W 123°27'0 0.0
2017-Aug-14 15:30N 48°26' W 123°27'0 0.0
2017-Aug-14 15:00N 48°26' W 123°27'  
2017-Aug-11 14:56N 48°26' W 123°27'2 5.1
2017-Aug-11 14:30N 48°24' W 123°25'9 8.6
2017-Aug-11 13:30N 48°26' W 123°12'510.4
2017-Aug-11 13:00N 48°31' W 123°13'510.4
2017-Aug-11 12:30N 48°36' W 123°14'510.1
2017-Aug-11 12:00N 48°41' W 123°16'4 8.8
2017-Aug-11 11:30N 48°44' W 123°11'610.4
2017-Aug-11 10:58N 48°46' W 123°03'4 7.9
2017-Aug-11 10:30N 48°50' W 123°01'4 8.9
2017-Aug-11 10:00N 48°53' W 123°06'4 8.6
2017-Aug-11 09:30N 48°55' W 123°11'510.8
2017-Aug-11 09:00N 48°59' W 123°17'510.3
2017-Aug-11 08:30N 49°03' W 123°23'510.6
2017-Aug-11 08:00N 49°08' W 123°24'510.2
2017-Aug-11 07:30N 49°13' W 123°23'510.6
2017-Aug-11 07:00N 49°18' W 123°26'5 9.5
2017-Aug-11 06:30N 49°22' W 123°26'5 9.4
2017-Aug-11 06:00N 49°26' W 123°21'4 7.9
2017-Aug-11 05:30N 49°29' W 123°19'5 9.4
2017-Aug-11 05:00N 49°34' W 123°20'2 4.2
2017-Aug-11 04:30N 49°33' W 123°17'5 9.1
2017-Aug-11 04:00N 49°29' W 123°17'510.2
2017-Aug-11 03:30N 49°24' W 123°18'4 8.3
2017-Aug-11 03:00N 49°20' W 123°16'510.1
2017-Aug-11 02:30N 49°19' W 123°09'29 6.6
2017-Aug-10 22:04N 48°51' W 123°23'110.9
2017-Aug-10 22:00N 48°52' W 123°24'4 7.5
2017-Aug-10 21:30N 48°55' W 123°27'1 2.8
2017-Aug-10 21:00N 48°54' W 123°25'0 0.0
2017-Aug-10 20:30N 48°54' W 123°25'0 0.0
2017-Aug-10 20:00N 48°54' W 123°25'0 0.0
2017-Aug-10 19:30N 48°54' W 123°25'0 0.0
2017-Aug-10 19:00N 48°54' W 123°25'0 0.0
2017-Aug-10 18:27N 48°54' W 123°25'0 0.0
2017-Aug-10 18:00N 48°54' W 123°25'0 0.0
2017-Aug-10 17:30N 48°54' W 123°25'0 0.0
2017-Aug-10 16:55N 48°54' W 123°25'1 1.9
2017-Aug-10 16:30N 48°55' W 123°26'3 5.2
2017-Aug-10 16:00N 48°56' W 123°30'3 4.9
2017-Aug-10 15:23N 48°53' W 123°27'3 8.6
2017-Aug-10 15:00N 48°51' W 123°23'4 8.6
2017-Aug-10 14:30N 48°47' W 123°20'4 8.3
2017-Aug-10 14:00N 48°44' W 123°24'5 9.1
2017-Aug-10 13:30N 48°42' W 123°30'1 1.4
2017-Aug-10 13:00N 48°42' W 123°29'9 8.2
2017-Aug-10 11:52N 48°44' W 123°15'3 9.2
2017-Aug-10 11:30N 48°43' W 123°10'33 8.3
2017-Aug-10 07:29N 49°16' W 123°21'612.1
2017-Aug-10 07:00N 49°22' W 123°19'4 7.3
2017-Aug-10 06:29N 49°25' W 123°21'21 8.4
2017-Aug-10 03:55N 49°23' W 123°54'2 4.1
2017-Aug-10 03:25N 49°24' W 123°57'613.1
2017-Aug-10 03:00N 49°23' W 123°49'4 7.8
2017-Aug-10 02:30N 49°22' W 123°43'4 8.2
2017-Aug-10 02:00N 49°20' W 123°37'4 7.0
2017-Aug-10 01:30N 49°21' W 123°42'611.4
2017-Aug-10 01:00N 49°22' W 123°51'3 6.1
2017-Aug-10 00:29N 49°23' W 123°55'1 2.5
2017-Aug-10 00:00N 49°22' W 123°55'5 9.5
2017-Aug-09 23:30N 49°21' W 123°47'5 9.3
2017-Aug-09 23:00N 49°19' W 123°41'2 4.3
2017-Aug-09 22:29N 49°19' W 123°38'4 7.9
2017-Aug-09 22:00N 49°20' W 123°43'4 8.2
2017-Aug-09 21:29N 49°16' W 123°42'3 5.9
2017-Aug-09 21:00N 49°17' W 123°46'5 9.6
2017-Aug-09 20:30N 49°22' W 123°46'5 9.4
2017-Aug-09 20:00N 49°21' W 123°39'4 9.0
2017-Aug-09 19:31N 49°21' W 123°32'4 7.9
2017-Aug-09 19:00N 49°18' W 123°28'4 7.3
2017-Aug-09 18:30N 49°14' W 123°30'5 8.8
2017-Aug-09 17:57N 49°17' W 123°36'4 8.9
2017-Aug-09 17:29N 49°20' W 123°40'7 5.1
2017-Aug-09 16:09N 49°22' W 123°50'2 7.4
2017-Aug-09 15:50N 49°23' W 123°53'3 9.3
2017-Aug-09 15:29N 49°25' W 123°58'911.2
2017-Aug-09 14:42N 49°31' W 124°07'411.8
2017-Aug-09 14:23N 49°34' W 124°10'511.9
2017-Aug-09 14:00N 49°38' W 124°15'510.8
2017-Aug-09 13:30N 49°42' W 124°20'4 8.8
2017-Aug-09 13:00N 49°44' W 124°25'5 9.6
2017-Aug-09 12:30N 49°46' W 124°32'4 9.0
2017-Aug-09 12:00N 49°50' W 124°36'3 6.8
2017-Aug-09 11:30N 49°48' W 124°32'5 9.7
2017-Aug-09 11:00N 49°45' W 124°25'5 9.6
2017-Aug-09 10:30N 49°44' W 124°18'4 7.7
2017-Aug-09 10:00N 49°46' W 124°13'7 9.6
2017-Aug-09 09:16N 49°48' W 124°03'5 6.2
2017-Aug-09 08:30N 49°46' W 124°09'4 7.5
2017-Aug-09 08:00N 49°44' W 124°14'4 9.1
2017-Aug-09 07:30N 49°39' W 124°13'5 9.4
2017-Aug-09 07:00N 49°36' W 124°08'5 9.6
2017-Aug-09 06:31N 49°32' W 124°04'5 9.2
2017-Aug-09 05:58N 49°27' W 124°01'4 9.5
2017-Aug-09 05:30N 49°26' W 123°54'4 8.7
2017-Aug-09 05:00N 49°25' W 123°48'3 4.1
2017-Aug-09 04:13N 49°23' W 123°44'1 5.7
2017-Aug-09 04:00N 49°22' W 123°42'3 5.2
2017-Aug-09 03:31N 49°22' W 123°39'3 5.4
2017-Aug-09 03:00N 49°22' W 123°34'810.8
2017-Aug-09 02:18N 49°25' W 123°23'310.4
2017-Aug-09 01:59N 49°26' W 123°19'3 6.7
2017-Aug-09 01:29N 49°22' W 123°18'4 8.1
2017-Aug-09 01:00N 49°18' W 123°18'611.7
2017-Aug-09 00:30N 49°12' W 123°19'917.2
2017-Aug-08 23:58N 49°04' W 123°26'3 5.6
2017-Aug-08 23:29N 49°03' W 123°29'2 4.4
2017-Aug-08 22:59N 49°04' W 123°31'4 4.9
2017-Aug-08 22:07N 49°08' W 123°36'1 4.0
2017-Aug-08 21:46N 49°09' W 123°37'2 4.3
2017-Aug-08 21:26N 49°09' W 123°35'15 6.0
2017-Aug-08 19:00N 49°21' W 123°49'5 8.5
2017-Aug-08 18:26N 49°23' W 123°42'4 9.2
2017-Aug-08 17:59N 49°21' W 123°36'5 9.0
2017-Aug-08 17:29N 49°19' W 123°30'4 9.3
2017-Aug-08 17:00N 49°18' W 123°23'2 3.6
2017-Aug-08 16:30N 49°19' W 123°21'4 8.8
2017-Aug-08 16:00N 49°19' W 123°14'  

Dump ship's entire track history